Rechercher aéroport 
image banner adimage banner adimage banner ad
image banner ad

O42 - Woodlake

Situé à Woodlake, United States

ICAO - O42, IATA -

Données fournies par Airmate  

Information générale

Coordonnées: N36°23'56" W119°6'25"
Élévation : 425 feet MSL.
Variation magnétique : 15° East
Voir autres Aéroports à California

Données opérationnelles

Special qualification required
Heure actuelle UTC:
Heure actuelle locale:
Météo à : KVIS - Visalia Muni ( 27 km )
METAR: KVIS 262156Z AUTO 18006KT 10SM CLR 35/11 A2987 RMK AO2 SLP115 T03500106
TAF: KVIS 261720Z 2618/2718 VRB03KT P6SM SCT150 BKN200 FM262300 VRB04KT P6SM BKN100 FM271000 VRB03KT P6SM SCT200
Voir NOTAMs / SUP AIP / TFR affectant cet aéroport [VIEW]
Fréquences de communication: [VIEW]

Pistes:

Identifiant RWYQFULongueur (ft)Largeur (ft)SurfaceLDA (ft)
07220350OTHER
25220350OTHER

Coordonnées de l'aéroport

Adresse: Woodlake United States

Vue satellite de O42